Century, Florida
Current Conditions -  °F | °C
As of 9:56 AM on Tuesday 21 Oct 2014 (Local Time) from KNSE Reporting Station
Few Clouds Few Clouds  
Wind Chill: 68°   Ceiling: Unl
Heat Index: 68°   Visibility: 10mi
Dew Point: 53°   Wind: 9mph
Humidity: 59%   Direction: 20°NNE
Pressure: 30.05"   Gusts: NA
Location:  30.97°N, 87.26°W
Report Text: KNSE 211456Z 02008KT 10SM FEW250 20/12 A3005 RMK AO2 SLP163 T02000117 50007 $
Loading
Personal Weather Stations






























Interactive Weather Map
Tropical Storm Tracking
New forecast layout! Learn more

10-Day Weather Forecast

Advertisements
Track Severe Weather on mobile